createdAt,value
2022-08-26T00:00:17.432Z,7
2022-08-26T00:01:17.423Z,7
2022-08-26T00:02:19.400Z,7
2022-08-26T00:03:17.422Z,7
2022-08-26T00:05:17.429Z,7
2022-08-26T00:06:17.417Z,7
2022-08-26T00:07:17.420Z,8
2022-08-26T00:08:17.437Z,8
2022-08-26T00:09:17.427Z,7
2022-08-26T00:10:17.415Z,7
2022-08-26T00:11:26.577Z,7
2022-08-26T00:12:17.427Z,7
2022-08-26T00:13:19.490Z,7
2022-08-26T00:14:17.421Z,8
2022-08-26T00:15:17.429Z,7
2022-08-26T00:16:17.491Z,7
2022-08-26T00:17:17.434Z,8
2022-08-26T00:19:17.420Z,7
2022-08-26T00:20:17.436Z,8
2022-08-26T00:21:17.664Z,8
2022-08-26T00:22:21.616Z,7
2022-08-26T00:23:17.419Z,7
2022-08-26T00:24:17.428Z,7
2022-08-26T00:25:17.427Z,8
2022-08-26T00:26:17.426Z,7
2022-08-26T00:27:17.431Z,7
2022-08-26T00:28:19.083Z,7
2022-08-26T00:29:17.456Z,7
2022-08-26T00:30:17.427Z,7
2022-08-26T00:31:17.529Z,7
2022-08-26T00:32:17.431Z,7
2022-08-26T00:33:17.436Z,6
2022-08-26T00:34:19.351Z,7
2022-08-26T00:35:17.434Z,7
2022-08-26T00:36:20.274Z,6
2022-08-26T00:37:17.447Z,7
2022-08-26T00:38:17.502Z,7
2022-08-26T00:39:17.434Z,6
2022-08-26T00:40:17.498Z,7
2022-08-26T00:41:17.450Z,7
2022-08-26T00:42:17.438Z,6
2022-08-26T00:43:17.438Z,7
2022-08-26T00:44:17.440Z,7
2022-08-26T00:45:17.432Z,7
2022-08-26T00:46:17.499Z,7
2022-08-26T00:47:17.438Z,6
2022-08-26T00:48:17.442Z,7
2022-08-26T00:49:17.436Z,6
2022-08-26T00:50:17.604Z,7
2022-08-26T00:51:17.444Z,7
2022-08-26T00:52:17.458Z,7
2022-08-26T00:53:17.449Z,7
2022-08-26T00:54:17.435Z,6
2022-08-26T00:55:20.347Z,7
2022-08-26T00:56:17.445Z,7
2022-08-26T00:57:17.442Z,7
2022-08-26T00:58:17.446Z,8
2022-08-26T00:59:17.712Z,7
2022-08-26T01:00:17.437Z,7
2022-08-26T01:01:17.503Z,7
2022-08-26T01:02:21.236Z,7
2022-08-26T01:03:17.446Z,8
2022-08-26T01:04:17.446Z,8
2022-08-26T01:05:17.443Z,8
2022-08-26T01:06:17.448Z,8
2022-08-26T01:07:17.448Z,8
2022-08-26T01:08:17.444Z,7
2022-08-26T01:09:17.450Z,8
2022-08-26T01:10:17.453Z,8
2022-08-26T01:11:17.445Z,8
2022-08-26T01:12:17.460Z,7
2022-08-26T01:13:17.459Z,7
2022-08-26T01:14:17.444Z,8
2022-08-26T01:15:17.448Z,8
2022-08-26T01:16:17.474Z,8
2022-08-26T01:17:17.456Z,7
2022-08-26T01:18:17.455Z,8
2022-08-26T01:19:17.451Z,8
2022-08-26T01:20:17.454Z,8
2022-08-26T01:21:17.458Z,8
2022-08-26T01:22:17.462Z,8
2022-08-26T01:23:17.524Z,8
2022-08-26T01:24:17.452Z,8
2022-08-26T01:25:17.449Z,7
2022-08-26T01:26:19.597Z,8
2022-08-26T01:27:17.460Z,7
2022-08-26T01:28:17.608Z,8
2022-08-26T01:29:17.455Z,9
2022-08-26T01:31:17.499Z,9
2022-08-26T01:32:17.455Z,9
2022-08-26T01:33:17.463Z,9
2022-08-26T01:34:17.451Z,10
2022-08-26T01:35:17.454Z,13
2022-08-26T01:36:17.454Z,10
2022-08-26T01:37:17.457Z,12
2022-08-26T01:38:17.459Z,14
2022-08-26T01:39:17.464Z,16
2022-08-26T01:40:17.524Z,16
2022-08-26T01:41:19.731Z,15
2022-08-26T01:42:17.459Z,11
2022-08-26T01:43:17.461Z,13
2022-08-26T01:45:17.467Z,16
2022-08-26T01:46:17.511Z,16
2022-08-26T01:47:17.464Z,16
2022-08-26T01:48:17.457Z,16
2022-08-26T01:49:17.463Z,17
2022-08-26T01:50:27.491Z,15
2022-08-26T01:51:17.461Z,14
2022-08-26T01:52:17.462Z,16
2022-08-26T01:53:17.539Z,16
2022-08-26T01:54:17.469Z,19
2022-08-26T01:55:32.402Z,18
2022-08-26T01:56:17.466Z,19
2022-08-26T01:57:17.467Z,17
2022-08-26T01:58:17.465Z,16
2022-08-26T01:59:17.466Z,16
2022-08-26T02:00:17.467Z,16
2022-08-26T02:01:17.502Z,18
2022-08-26T02:03:17.517Z,19
2022-08-26T02:04:17.480Z,17
2022-08-26T02:06:17.467Z,16
2022-08-26T02:07:17.470Z,16
2022-08-26T02:08:17.468Z,17
2022-08-26T02:09:17.474Z,16
2022-08-26T02:10:17.473Z,15
2022-08-26T02:11:18.459Z,15
2022-08-26T02:12:17.467Z,16
2022-08-26T02:13:17.467Z,17
2022-08-26T02:14:17.464Z,15
2022-08-26T02:15:17.466Z,15
2022-08-26T02:16:17.538Z,15
2022-08-26T02:17:17.475Z,17
2022-08-26T02:18:17.474Z,28
2022-08-26T02:19:17.531Z,23
2022-08-26T02:20:17.476Z,21
2022-08-26T02:21:17.469Z,22
2022-08-26T02:22:17.473Z,20
2022-08-26T02:23:17.479Z,21
2022-08-26T02:24:17.477Z,21
2022-08-26T02:25:17.480Z,21
2022-08-26T02:27:17.485Z,21
2022-08-26T02:28:17.488Z,22
2022-08-26T02:29:18.886Z,21
2022-08-26T02:30:17.477Z,19
2022-08-26T02:31:17.535Z,20
2022-08-26T02:32:18.405Z,20
2022-08-26T02:33:17.490Z,20
2022-08-26T02:35:18.323Z,22
2022-08-26T02:36:17.497Z,23
2022-08-26T02:37:17.732Z,22
2022-08-26T02:38:17.477Z,23
2022-08-26T02:39:22.385Z,24
2022-08-26T02:40:17.510Z,24
2022-08-26T02:41:17.486Z,24
2022-08-26T02:42:17.479Z,21
2022-08-26T02:43:17.566Z,22
2022-08-26T02:44:17.493Z,22
2022-08-26T02:45:23.396Z,23
2022-08-26T02:46:21.495Z,21
2022-08-26T02:48:17.485Z,20
2022-08-26T02:49:17.483Z,22
2022-08-26T02:50:17.488Z,21
2022-08-26T02:51:17.494Z,22
2022-08-26T02:52:17.496Z,23
2022-08-26T02:53:19.215Z,22
2022-08-26T02:54:17.480Z,22
2022-08-26T02:55:17.495Z,25
2022-08-26T02:56:17.492Z,23
2022-08-26T02:57:17.507Z,24
2022-08-26T02:58:17.502Z,26
2022-08-26T02:59:17.496Z,26
2022-08-26T03:00:17.486Z,26
2022-08-26T03:01:17.573Z,27
2022-08-26T03:02:17.583Z,27
2022-08-26T03:03:17.498Z,26
2022-08-26T03:04:17.497Z,24
2022-08-26T03:05:17.500Z,24
2022-08-26T03:06:17.496Z,28
2022-08-26T03:07:17.509Z,28
2022-08-26T03:09:18.573Z,27
2022-08-26T03:10:17.494Z,27
2022-08-26T03:11:17.500Z,28
2022-08-26T03:12:17.504Z,29
2022-08-26T03:13:17.496Z,33
2022-08-26T03:14:17.501Z,29
2022-08-26T03:15:18.447Z,31
2022-08-26T03:16:17.540Z,31
2022-08-26T03:18:17.500Z,31
2022-08-26T03:19:17.829Z,31
2022-08-26T03:20:17.651Z,27
2022-08-26T03:21:17.508Z,29
2022-08-26T03:22:17.506Z,27
2022-08-26T03:23:18.496Z,31
2022-08-26T03:24:17.518Z,31
2022-08-26T03:25:17.503Z,32
2022-08-26T03:26:17.512Z,32
2022-08-26T03:27:17.512Z,32
2022-08-26T03:28:18.178Z,30
2022-08-26T03:29:17.514Z,35
2022-08-26T03:30:17.505Z,32
2022-08-26T03:31:17.547Z,29
2022-08-26T03:32:17.510Z,35
2022-08-26T03:33:17.520Z,34
2022-08-26T03:34:17.505Z,32
2022-08-26T03:35:17.504Z,35
2022-08-26T03:36:17.508Z,38
2022-08-26T03:37:17.510Z,35
2022-08-26T03:38:17.529Z,36
2022-08-26T03:39:17.513Z,36
2022-08-26T03:40:20.318Z,36
2022-08-26T03:41:17.511Z,40
2022-08-26T03:42:17.507Z,39
2022-08-26T03:43:17.500Z,38
2022-08-26T03:44:17.516Z,40
2022-08-26T03:45:17.507Z,41
2022-08-26T03:46:17.553Z,38
2022-08-26T03:47:17.512Z,39
2022-08-26T03:48:17.507Z,42
2022-08-26T03:49:17.507Z,38
2022-08-26T03:50:17.521Z,40
2022-08-26T03:51:18.173Z,43
2022-08-26T03:52:17.512Z,38
2022-08-26T03:53:17.574Z,39
2022-08-26T03:54:17.510Z,44
2022-08-26T03:55:17.519Z,40
2022-08-26T03:56:17.518Z,42
2022-08-26T03:57:17.527Z,45
2022-08-26T03:58:17.510Z,42
2022-08-26T03:59:17.528Z,40
2022-08-26T04:00:18.484Z,38
2022-08-26T04:02:17.517Z,38
2022-08-26T04:03:18.924Z,40
2022-08-26T04:04:17.518Z,40
2022-08-26T04:05:17.514Z,39
2022-08-26T04:06:17.513Z,40
2022-08-26T04:07:17.522Z,41
2022-08-26T04:08:17.521Z,38
2022-08-26T04:09:17.518Z,37
2022-08-26T04:10:20.280Z,40
2022-08-26T04:11:17.518Z,35
2022-08-26T04:12:17.516Z,36
2022-08-26T04:13:17.524Z,34
2022-08-26T04:14:20.078Z,35
2022-08-26T04:15:17.846Z,39
2022-08-26T04:16:17.581Z,34
2022-08-26T04:17:17.516Z,38
2022-08-26T04:18:17.525Z,36
2022-08-26T04:19:17.519Z,38
2022-08-26T04:20:17.523Z,38
2022-08-26T04:21:17.536Z,38
2022-08-26T04:22:24.822Z,37
2022-08-26T04:23:17.531Z,38
2022-08-26T04:24:17.712Z,34
2022-08-26T04:25:17.530Z,38
2022-08-26T04:26:17.537Z,36
2022-08-26T04:27:17.530Z,36
2022-08-26T04:28:17.536Z,39
2022-08-26T04:29:17.522Z,34
2022-08-26T04:30:17.529Z,35
2022-08-26T04:31:17.582Z,36
2022-08-26T04:32:17.532Z,34
2022-08-26T04:33:17.530Z,35
2022-08-26T04:34:17.530Z,38
2022-08-26T04:35:17.531Z,35
2022-08-26T04:36:17.534Z,38
2022-08-26T04:37:17.528Z,36
2022-08-26T04:38:17.595Z,37
2022-08-26T04:39:18.636Z,36
2022-08-26T04:40:17.572Z,40
2022-08-26T04:41:17.532Z,36
2022-08-26T04:42:21.030Z,36
2022-08-26T04:43:17.530Z,33
2022-08-26T04:44:17.533Z,33
2022-08-26T04:45:17.532Z,36
2022-08-26T04:46:17.584Z,37
2022-08-26T04:47:17.535Z,35
2022-08-26T04:48:17.537Z,34
2022-08-26T04:49:17.529Z,32
2022-08-26T04:50:17.536Z,36
2022-08-26T04:51:17.532Z,35
2022-08-26T04:52:17.549Z,32
2022-08-26T04:53:17.532Z,33
2022-08-26T04:54:17.532Z,35
2022-08-26T04:55:17.532Z,35
2022-08-26T04:56:17.534Z,33
2022-08-26T04:57:17.535Z,36
2022-08-26T04:58:17.548Z,35
2022-08-26T04:59:18.209Z,36
2022-08-26T05:00:17.539Z,35
2022-08-26T05:01:17.588Z,31
2022-08-26T05:02:17.541Z,32
2022-08-26T05:03:17.543Z,31
2022-08-26T05:04:18.975Z,33
2022-08-26T05:05:18.109Z,34
2022-08-26T05:06:19.086Z,31
2022-08-26T05:07:17.703Z,34
2022-08-26T05:08:17.540Z,35
2022-08-26T05:09:17.548Z,34
2022-08-26T05:10:17.548Z,32
2022-08-26T05:11:17.545Z,32
2022-08-26T05:12:17.547Z,30
2022-08-26T05:13:17.546Z,29
2022-08-26T05:14:17.541Z,29
2022-08-26T05:15:17.547Z,32
2022-08-26T05:16:17.648Z,33
2022-08-26T05:17:17.551Z,32
2022-08-26T05:18:17.547Z,32
2022-08-26T05:19:18.855Z,30
2022-08-26T05:20:17.696Z,30
2022-08-26T05:21:17.546Z,33
2022-08-26T05:22:17.576Z,29
2022-08-26T05:23:17.549Z,29
2022-08-26T05:24:17.910Z,30
2022-08-26T05:26:17.545Z,29
2022-08-26T05:27:17.547Z,33
2022-08-26T05:28:17.544Z,30
2022-08-26T05:29:17.552Z,30
2022-08-26T05:30:17.552Z,28
2022-08-26T05:31:17.573Z,31
2022-08-26T05:32:17.552Z,28
2022-08-26T05:33:17.555Z,28
2022-08-26T05:34:17.551Z,29
2022-08-26T05:35:17.552Z,30
2022-08-26T05:36:17.547Z,34
2022-08-26T05:37:17.552Z,31
2022-08-26T05:38:17.550Z,32
2022-08-26T05:39:17.557Z,32
2022-08-26T05:40:17.628Z,28
2022-08-26T05:41:17.553Z,31
2022-08-26T05:42:17.558Z,30
2022-08-26T05:43:17.619Z,29
2022-08-26T05:44:17.945Z,31
2022-08-26T05:45:17.557Z,30
2022-08-26T05:46:17.652Z,29
2022-08-26T05:47:17.553Z,29
2022-08-26T05:48:17.547Z,30
2022-08-26T05:49:17.563Z,28
2022-08-26T05:50:17.564Z,26
2022-08-26T05:51:17.561Z,27
2022-08-26T05:52:17.557Z,26
2022-08-26T05:53:17.709Z,30
2022-08-26T05:54:21.278Z,28
2022-08-26T05:55:17.564Z,28
2022-08-26T05:56:17.556Z,28
2022-08-26T05:57:17.560Z,27
2022-08-26T05:58:17.661Z,30
2022-08-26T05:59:17.587Z,25
2022-08-26T06:00:17.563Z,26
2022-08-26T06:01:17.657Z,24
2022-08-26T06:02:17.586Z,25
2022-08-26T06:03:17.646Z,25
2022-08-26T06:04:17.558Z,25
2022-08-26T06:05:17.565Z,28
2022-08-26T06:06:20.776Z,27
2022-08-26T06:07:17.557Z,26
2022-08-26T06:08:19.223Z,27
2022-08-26T06:09:18.303Z,27
2022-08-26T06:10:32.435Z,26
2022-08-26T06:11:18.588Z,26
2022-08-26T06:12:17.561Z,27
2022-08-26T06:13:17.560Z,27
2022-08-26T06:14:17.563Z,27
2022-08-26T06:15:17.561Z,26
2022-08-26T06:16:17.602Z,25
2022-08-26T06:17:17.563Z,24
2022-08-26T06:18:17.567Z,24
2022-08-26T06:19:17.574Z,26
2022-08-26T06:20:17.565Z,24
2022-08-26T06:21:17.562Z,25
2022-08-26T06:22:22.240Z,25
2022-08-26T06:23:17.571Z,26
2022-08-26T06:24:17.575Z,24
2022-08-26T06:25:17.575Z,26
2022-08-26T06:26:17.575Z,24
2022-08-26T06:27:17.577Z,24
2022-08-26T06:28:17.589Z,24
2022-08-26T06:29:24.400Z,24
2022-08-26T06:30:17.571Z,27
2022-08-26T06:31:17.689Z,25
2022-08-26T06:32:17.574Z,24
2022-08-26T06:33:17.573Z,23
2022-08-26T06:34:17.572Z,26
2022-08-26T06:35:17.573Z,25
2022-08-26T06:36:18.706Z,23
2022-08-26T06:37:17.579Z,26
2022-08-26T06:38:17.582Z,26
2022-08-26T06:39:17.572Z,26
2022-08-26T06:40:17.713Z,24
2022-08-26T06:41:17.587Z,23
2022-08-26T06:43:17.586Z,25
2022-08-26T06:44:17.582Z,24
2022-08-26T06:45:17.579Z,21
2022-08-26T06:46:17.610Z,23
2022-08-26T06:47:17.588Z,25
2022-08-26T06:48:17.622Z,22
2022-08-26T06:49:17.580Z,23
2022-08-26T06:50:17.585Z,22
2022-08-26T06:51:17.577Z,20
2022-08-26T06:52:22.527Z,22
2022-08-26T06:53:17.599Z,21
2022-08-26T06:54:17.582Z,20
2022-08-26T06:55:17.580Z,23
2022-08-26T06:56:17.587Z,22
2022-08-26T06:57:17.584Z,23
2022-08-26T06:58:17.589Z,20
2022-08-26T06:59:17.952Z,22
2022-08-26T07:00:17.603Z,21
2022-08-26T07:01:18.183Z,21
2022-08-26T07:02:17.840Z,18
2022-08-26T07:04:22.062Z,21
2022-08-26T07:05:17.589Z,22
2022-08-26T07:06:17.588Z,21
2022-08-26T07:07:17.595Z,19
2022-08-26T07:08:17.586Z,21
2022-08-26T07:09:17.597Z,21
2022-08-26T07:10:17.590Z,20
2022-08-26T07:11:17.586Z,20
2022-08-26T07:12:17.589Z,20
2022-08-26T07:13:17.591Z,21
2022-08-26T07:14:17.604Z,19
2022-08-26T07:15:17.592Z,22
2022-08-26T07:16:17.649Z,21
2022-08-26T07:17:17.588Z,21
2022-08-26T07:18:17.582Z,21
2022-08-26T07:19:17.590Z,21
2022-08-26T07:20:19.494Z,20
2022-08-26T07:21:18.260Z,19
2022-08-26T07:22:17.594Z,19
2022-08-26T07:23:17.603Z,20
2022-08-26T07:24:17.592Z,20
2022-08-26T07:25:17.597Z,18
2022-08-26T07:26:17.599Z,19
2022-08-26T07:27:17.597Z,21
2022-08-26T07:28:17.592Z,21
2022-08-26T07:29:17.595Z,20
2022-08-26T07:30:17.601Z,18
2022-08-26T07:31:17.772Z,22
2022-08-26T07:32:17.591Z,18
2022-08-26T07:33:17.600Z,19
2022-08-26T07:34:17.602Z,19
2022-08-26T07:35:17.595Z,23
2022-08-26T07:36:17.610Z,20
2022-08-26T07:37:17.740Z,20
2022-08-26T07:38:17.598Z,20
2022-08-26T07:39:17.602Z,21
2022-08-26T07:40:17.638Z,22
2022-08-26T07:41:18.442Z,21
2022-08-26T07:42:18.505Z,21
2022-08-26T07:43:17.598Z,21
2022-08-26T07:44:17.639Z,19
2022-08-26T07:45:17.598Z,21
2022-08-26T07:46:17.604Z,19
2022-08-26T07:47:24.835Z,20
2022-08-26T07:48:17.611Z,20
2022-08-26T07:49:17.628Z,19
2022-08-26T07:50:17.601Z,18
2022-08-26T07:51:17.603Z,19
2022-08-26T07:52:17.610Z,19
2022-08-26T07:53:17.993Z,18
2022-08-26T07:54:17.608Z,18
2022-08-26T07:55:17.630Z,17
2022-08-26T07:56:17.617Z,19
2022-08-26T07:57:17.609Z,19
2022-08-26T07:58:17.608Z,19
2022-08-26T07:59:17.612Z,18
2022-08-26T08:00:17.611Z,17
2022-08-26T08:01:17.644Z,17
2022-08-26T08:02:17.607Z,16
2022-08-26T08:03:17.608Z,17
2022-08-26T08:04:17.834Z,16
2022-08-26T08:05:17.670Z,16
2022-08-26T08:06:17.622Z,17
2022-08-26T08:07:17.608Z,15
2022-08-26T08:09:17.613Z,16
2022-08-26T08:10:17.622Z,15
2022-08-26T08:11:17.610Z,16
2022-08-26T08:12:17.611Z,15
2022-08-26T08:13:17.613Z,15
2022-08-26T08:14:17.615Z,14
2022-08-26T08:15:17.615Z,17
2022-08-26T08:16:17.661Z,16
2022-08-26T08:17:17.616Z,16
2022-08-26T08:18:17.612Z,15
2022-08-26T08:19:17.614Z,15
2022-08-26T08:20:17.629Z,15
2022-08-26T08:21:21.906Z,15
2022-08-26T08:22:19.805Z,13
2022-08-26T08:23:17.611Z,14
2022-08-26T08:24:17.618Z,15
2022-08-26T08:25:17.618Z,14
2022-08-26T08:26:17.614Z,14
2022-08-26T08:27:22.810Z,14
2022-08-26T08:28:17.624Z,12
2022-08-26T08:30:22.864Z,14
2022-08-26T08:31:21.639Z,13
2022-08-26T08:32:17.622Z,12
2022-08-26T08:33:17.632Z,13
2022-08-26T08:34:18.162Z,12
2022-08-26T08:35:17.620Z,12
2022-08-26T08:36:20.376Z,12
2022-08-26T08:38:17.626Z,12
2022-08-26T08:39:18.509Z,12
2022-08-26T08:40:17.708Z,12
2022-08-26T08:41:17.624Z,11
2022-08-26T08:42:17.625Z,11
2022-08-26T08:43:17.623Z,12
2022-08-26T08:44:17.688Z,11
2022-08-26T08:45:17.630Z,11
2022-08-26T08:46:17.708Z,12
2022-08-26T08:47:17.636Z,12
2022-08-26T08:48:17.623Z,11
2022-08-26T08:49:17.692Z,11
2022-08-26T08:51:17.628Z,10
2022-08-26T08:52:17.641Z,10
2022-08-26T08:53:17.626Z,11
2022-08-26T08:54:17.639Z,11
2022-08-26T08:55:18.299Z,10
2022-08-26T08:56:17.630Z,9
2022-08-26T08:57:17.629Z,9
2022-08-26T08:58:19.072Z,9
2022-08-26T08:59:17.691Z,9
2022-08-26T09:00:17.689Z,8
2022-08-26T09:01:17.667Z,10
2022-08-26T09:02:17.714Z,9
2022-08-26T09:03:17.633Z,9
2022-08-26T09:04:17.637Z,9
2022-08-26T09:05:17.642Z,9
2022-08-26T09:06:17.640Z,9
2022-08-26T09:07:17.643Z,9
2022-08-26T09:08:19.853Z,8
2022-08-26T09:09:17.642Z,9
2022-08-26T09:10:17.729Z,9
2022-08-26T09:12:17.641Z,8
2022-08-26T09:13:25.323Z,8
2022-08-26T09:15:17.640Z,9
2022-08-26T09:16:19.202Z,9
2022-08-26T09:17:17.637Z,9
2022-08-26T09:18:17.637Z,8
2022-08-26T09:19:18.968Z,8
2022-08-26T09:20:17.705Z,8
2022-08-26T09:21:17.901Z,7
2022-08-26T09:22:17.680Z,7
2022-08-26T09:23:18.233Z,6
2022-08-26T09:24:18.193Z,7
2022-08-26T09:25:18.655Z,7
2022-08-26T09:26:17.652Z,7
2022-08-26T09:27:17.639Z,6
2022-08-26T09:28:17.652Z,6
2022-08-26T09:29:17.830Z,5
2022-08-26T09:30:17.751Z,6
2022-08-26T09:31:17.718Z,6
2022-08-26T09:32:17.644Z,6
2022-08-26T09:33:17.647Z,5
2022-08-26T09:34:17.948Z,6
2022-08-26T09:35:17.656Z,6
2022-08-26T09:36:17.651Z,6
2022-08-26T09:37:17.654Z,5
2022-08-26T09:38:17.715Z,6
2022-08-26T09:39:17.647Z,6
2022-08-26T09:40:17.887Z,6
2022-08-26T09:41:17.654Z,5
2022-08-26T09:42:17.665Z,6
2022-08-26T09:43:22.408Z,5
2022-08-26T09:44:17.652Z,6
2022-08-26T09:45:17.645Z,6
2022-08-26T09:46:17.772Z,6
2022-08-26T09:47:17.646Z,6
2022-08-26T09:48:17.742Z,6
2022-08-26T09:49:17.646Z,6
2022-08-26T09:50:17.644Z,7
2022-08-26T09:51:17.651Z,7
2022-08-26T09:52:17.657Z,7
2022-08-26T09:53:17.655Z,7
2022-08-26T09:54:20.662Z,7
2022-08-26T09:55:17.660Z,7
2022-08-26T09:56:17.655Z,7
2022-08-26T09:57:17.656Z,7
2022-08-26T09:58:17.659Z,8
2022-08-26T09:59:18.896Z,7
2022-08-26T10:00:17.671Z,8
2022-08-26T10:01:17.711Z,7
2022-08-26T10:02:17.745Z,7
2022-08-26T10:03:17.662Z,8
2022-08-26T10:04:17.736Z,8
2022-08-26T10:05:17.663Z,7
2022-08-26T10:06:17.665Z,7
2022-08-26T10:07:17.660Z,7
2022-08-26T10:08:17.663Z,8
2022-08-26T10:09:18.029Z,8
2022-08-26T10:10:17.657Z,7
2022-08-26T10:11:17.658Z,7
2022-08-26T10:12:18.262Z,7
2022-08-26T10:13:17.663Z,8
2022-08-26T10:14:17.661Z,8
2022-08-26T10:15:17.696Z,8
2022-08-26T10:16:17.869Z,9
2022-08-26T10:17:17.663Z,8
2022-08-26T10:18:17.672Z,8
2022-08-26T10:19:17.667Z,8
2022-08-26T10:20:23.145Z,8
2022-08-26T10:21:17.940Z,8
2022-08-26T10:22:17.671Z,7
2022-08-26T10:23:17.667Z,7
2022-08-26T10:24:17.669Z,7
2022-08-26T10:25:17.662Z,6
2022-08-26T10:26:17.666Z,7
2022-08-26T10:28:17.668Z,7
2022-08-26T10:29:17.688Z,7
2022-08-26T10:30:17.665Z,7
2022-08-26T10:31:17.675Z,6
2022-08-26T10:32:17.736Z,7
2022-08-26T10:33:17.925Z,7
2022-08-26T10:34:17.672Z,6
2022-08-26T10:35:17.669Z,7
2022-08-26T10:36:20.309Z,6
2022-08-26T10:37:17.677Z,6
2022-08-26T10:38:17.663Z,6
2022-08-26T10:39:17.672Z,6
2022-08-26T10:40:17.795Z,6
2022-08-26T10:41:18.226Z,5
2022-08-26T10:42:17.675Z,6
2022-08-26T10:43:17.678Z,6
2022-08-26T10:44:17.670Z,6
2022-08-26T10:45:17.673Z,6
2022-08-26T10:46:17.720Z,5
2022-08-26T10:47:17.672Z,6
2022-08-26T10:49:17.671Z,6
2022-08-26T10:50:18.012Z,6
2022-08-26T10:51:17.715Z,5
2022-08-26T10:52:17.678Z,6
2022-08-26T10:53:17.676Z,6
2022-08-26T10:54:17.681Z,5
2022-08-26T10:55:17.674Z,5
2022-08-26T10:56:19.069Z,6
2022-08-26T10:57:17.677Z,5
2022-08-26T10:58:26.463Z,6
2022-08-26T10:59:17.695Z,5
2022-08-26T11:00:17.691Z,5
2022-08-26T11:01:17.734Z,6
2022-08-26T11:02:21.534Z,5
2022-08-26T11:04:17.776Z,5
2022-08-26T11:05:17.687Z,5
2022-08-26T11:06:17.682Z,5
2022-08-26T11:07:17.686Z,5
2022-08-26T11:08:17.682Z,5
2022-08-26T11:09:17.679Z,5
2022-08-26T11:10:17.688Z,6
2022-08-26T11:11:17.688Z,6
2022-08-26T11:12:17.681Z,5
2022-08-26T11:13:17.695Z,6
2022-08-26T11:14:17.689Z,5
2022-08-26T11:15:17.689Z,5
2022-08-26T11:16:17.760Z,6
2022-08-26T11:17:17.686Z,6
2022-08-26T11:18:17.696Z,5
2022-08-26T11:19:17.691Z,6
2022-08-26T11:20:17.697Z,6
2022-08-26T11:21:17.696Z,7
2022-08-26T11:22:17.686Z,6
2022-08-26T11:23:17.685Z,5
2022-08-26T11:24:17.690Z,5
2022-08-26T11:25:18.224Z,6
2022-08-26T11:26:35.679Z,6
2022-08-26T11:27:17.695Z,6
2022-08-26T11:28:17.698Z,6
2022-08-26T11:29:17.730Z,6
2022-08-26T11:30:18.514Z,6
2022-08-26T11:31:17.701Z,6
2022-08-26T11:32:17.695Z,6
2022-08-26T11:33:17.692Z,5
2022-08-26T11:34:17.698Z,5
2022-08-26T11:36:17.711Z,5
2022-08-26T11:37:17.746Z,5
2022-08-26T11:38:18.474Z,5
2022-08-26T11:39:17.701Z,5
2022-08-26T11:40:17.753Z,5
2022-08-26T11:41:17.703Z,5
2022-08-26T11:42:20.159Z,5
2022-08-26T11:43:17.702Z,6
2022-08-26T11:44:17.701Z,5
2022-08-26T11:45:17.694Z,6
2022-08-26T11:46:17.738Z,5
2022-08-26T11:47:17.707Z,6
2022-08-26T11:48:17.698Z,5
2022-08-26T11:49:17.707Z,5
2022-08-26T11:50:17.703Z,5
2022-08-26T11:51:17.696Z,5
2022-08-26T11:52:17.709Z,5
2022-08-26T11:53:17.704Z,5
2022-08-26T11:54:17.709Z,4
2022-08-26T11:55:17.716Z,5
2022-08-26T11:57:17.715Z,5
2022-08-26T11:58:17.705Z,5
2022-08-26T11:59:17.706Z,5
2022-08-26T12:00:20.940Z,5
2022-08-26T12:01:17.718Z,5
2022-08-26T12:02:18.126Z,5
2022-08-26T12:03:17.745Z,5
2022-08-26T12:04:17.862Z,5
2022-08-26T12:05:17.708Z,4
2022-08-26T12:06:17.806Z,5
2022-08-26T12:07:23.737Z,4
2022-08-26T12:08:17.714Z,4
2022-08-26T12:09:17.707Z,5
2022-08-26T12:10:17.720Z,4
2022-08-26T12:11:17.714Z,5
2022-08-26T12:12:17.714Z,5
2022-08-26T12:13:17.714Z,5
2022-08-26T12:14:17.709Z,5
2022-08-26T12:15:17.710Z,4
2022-08-26T12:16:17.776Z,5
2022-08-26T12:18:17.715Z,4
2022-08-26T12:19:17.718Z,4
2022-08-26T12:20:17.717Z,5
2022-08-26T12:21:17.717Z,4
2022-08-26T12:22:17.713Z,6
2022-08-26T12:23:17.711Z,5
2022-08-26T12:24:17.718Z,5
2022-08-26T12:25:17.710Z,5
2022-08-26T12:26:17.722Z,5
2022-08-26T12:27:17.722Z,6
2022-08-26T12:28:17.724Z,5
2022-08-26T12:29:26.547Z,5
2022-08-26T12:30:17.954Z,6
2022-08-26T12:32:17.722Z,4
2022-08-26T12:33:22.269Z,5
2022-08-26T12:34:18.545Z,4
2022-08-26T12:35:17.731Z,4
2022-08-26T12:36:17.718Z,5
2022-08-26T12:37:18.902Z,5
2022-08-26T12:39:17.733Z,5
2022-08-26T12:40:17.830Z,4
2022-08-26T12:41:17.716Z,4
2022-08-26T12:42:17.733Z,5
2022-08-26T12:43:17.723Z,4
2022-08-26T12:44:17.732Z,5
2022-08-26T12:45:17.731Z,5
2022-08-26T12:46:17.722Z,5
2022-08-26T12:47:20.437Z,5
2022-08-26T12:48:17.717Z,5
2022-08-26T12:49:17.730Z,4
2022-08-26T12:50:17.720Z,5
2022-08-26T12:51:17.729Z,5
2022-08-26T12:52:17.731Z,4
2022-08-26T12:53:17.726Z,4
2022-08-26T12:54:17.730Z,5
2022-08-26T12:55:17.724Z,5
2022-08-26T12:56:17.732Z,5
2022-08-26T12:57:17.757Z,6
2022-08-26T12:58:17.727Z,5
2022-08-26T13:00:17.752Z,5
2022-08-26T13:01:17.917Z,5
2022-08-26T13:02:17.763Z,5
2022-08-26T13:03:17.735Z,4
2022-08-26T13:04:17.729Z,4
2022-08-26T13:05:17.746Z,5
2022-08-26T13:06:17.735Z,5
2022-08-26T13:07:17.731Z,4
2022-08-26T13:08:17.727Z,5
2022-08-26T13:09:17.757Z,4
2022-08-26T13:10:17.734Z,4
2022-08-26T13:11:17.737Z,5
2022-08-26T13:12:17.732Z,4
2022-08-26T13:13:17.734Z,5
2022-08-26T13:14:23.650Z,5
2022-08-26T13:15:17.744Z,5
2022-08-26T13:16:17.772Z,5
2022-08-26T13:17:17.738Z,5
2022-08-26T13:18:17.738Z,5
2022-08-26T13:19:17.739Z,4
2022-08-26T13:20:17.738Z,4
2022-08-26T13:21:17.739Z,5
2022-08-26T13:22:17.738Z,5
2022-08-26T13:23:17.740Z,4
2022-08-26T13:24:17.735Z,4
2022-08-26T13:25:19.699Z,5
2022-08-26T13:26:17.739Z,5
2022-08-26T13:27:17.743Z,4
2022-08-26T13:28:17.743Z,4
2022-08-26T13:29:17.737Z,4
2022-08-26T13:30:17.749Z,5
2022-08-26T13:31:17.894Z,5
2022-08-26T13:32:17.740Z,5
2022-08-26T13:33:17.745Z,5
2022-08-26T13:34:17.746Z,5
2022-08-26T13:35:17.754Z,5
2022-08-26T13:36:17.750Z,5
2022-08-26T13:37:17.739Z,4
2022-08-26T13:38:18.569Z,5
2022-08-26T13:39:17.746Z,5
2022-08-26T13:40:17.849Z,4
2022-08-26T13:41:17.751Z,4
2022-08-26T13:42:17.760Z,4
2022-08-26T13:43:17.752Z,4
2022-08-26T13:44:17.747Z,3
2022-08-26T13:45:17.755Z,4
2022-08-26T13:46:17.833Z,4
2022-08-26T13:47:17.751Z,3
2022-08-26T13:48:21.461Z,3
2022-08-26T13:49:17.767Z,4
2022-08-26T13:50:17.746Z,4
2022-08-26T13:51:17.754Z,4
2022-08-26T13:52:17.754Z,4
2022-08-26T13:53:17.754Z,3
2022-08-26T13:54:17.759Z,4
2022-08-26T13:55:17.764Z,3
2022-08-26T13:56:17.754Z,3
2022-08-26T13:57:17.762Z,3
2022-08-26T13:58:17.757Z,3
2022-08-26T13:59:17.753Z,3
2022-08-26T14:00:17.753Z,3
2022-08-26T14:01:17.763Z,4
2022-08-26T14:02:17.757Z,3
2022-08-26T14:03:17.801Z,3
2022-08-26T14:04:17.755Z,3
2022-08-26T14:05:17.762Z,3
2022-08-26T14:06:17.806Z,3
2022-08-26T14:07:17.771Z,3
2022-08-26T14:08:17.830Z,3
2022-08-26T14:09:17.785Z,3
2022-08-26T14:10:17.760Z,3
2022-08-26T14:11:17.770Z,3
2022-08-26T14:12:17.772Z,3
2022-08-26T14:13:17.761Z,3
2022-08-26T14:14:17.763Z,3
2022-08-26T14:15:17.761Z,3
2022-08-26T14:16:17.831Z,3
2022-08-26T14:17:17.768Z,3
2022-08-26T14:18:17.759Z,3
2022-08-26T14:19:17.769Z,3
2022-08-26T14:20:17.788Z,3
2022-08-26T14:21:17.767Z,3
2022-08-26T14:22:17.768Z,3
2022-08-26T14:23:17.766Z,3
2022-08-26T14:24:17.759Z,3
2022-08-26T14:25:17.773Z,3
2022-08-26T14:26:29.453Z,3
2022-08-26T14:27:17.764Z,3
2022-08-26T14:28:17.849Z,3
2022-08-26T14:29:17.760Z,3
2022-08-26T14:30:17.771Z,3
2022-08-26T14:31:17.863Z,3
2022-08-26T14:32:17.777Z,4
2022-08-26T14:33:17.766Z,3
2022-08-26T14:34:17.766Z,3
2022-08-26T14:35:18.792Z,3
2022-08-26T14:37:17.785Z,3
2022-08-26T14:38:17.829Z,3
2022-08-26T14:39:17.769Z,3
2022-08-26T14:40:17.835Z,4
2022-08-26T14:41:17.766Z,3
2022-08-26T14:42:17.770Z,3
2022-08-26T14:43:17.780Z,3
2022-08-26T14:44:17.772Z,3
2022-08-26T14:45:17.770Z,3
2022-08-26T14:46:17.836Z,3
2022-08-26T14:47:17.774Z,3
2022-08-26T14:48:17.783Z,2
2022-08-26T14:49:17.771Z,3
2022-08-26T14:50:17.777Z,2
2022-08-26T14:51:17.772Z,3
2022-08-26T14:52:17.775Z,3
2022-08-26T14:53:17.786Z,3
2022-08-26T14:54:17.777Z,3
2022-08-26T14:55:17.783Z,3
2022-08-26T14:56:17.779Z,4
2022-08-26T14:57:17.771Z,3
2022-08-26T14:58:17.780Z,3
2022-08-26T14:59:17.787Z,3
2022-08-26T15:01:17.856Z,4
2022-08-26T15:04:17.784Z,4
2022-08-26T15:05:17.783Z,4